• Join FlightAware (Why Join?)
  • Login
  • US Flag 
Rudolph Flight #1: Arrived! 
07:41PM EST


 

Airport Tracker/Info


-or-


 

Live Flight TrackerFlight Track Log ✈ UCA3597 ✈ 25-Sep-2013 ✈ KIAD - KBGM

Flight Track Log - Related Links

Times and Time Zones

All times are in EDT time to prevent confusion due to time zone crossing. See the UCA3597 flight status page for this flight to view local times or setup timezone preferences in your user account.

Time Position Orientation Groundspeed Altitude Reporting Facility
EDT Latitude Longitude Course Direction KTS MPH feet Rate Location/Type
05:41PM 39.3873 -77.2689 19° North  Level Estimated
05:42PM 39.4362 -77.2476 19° North  Level Estimated
05:43PM 39.4851 -77.2262 19° North  Level Estimated
05:44PM 39.5339 -77.2047 19° North  Level Estimated
05:45PM 39.5827 -77.1833 19° North  Level Estimated
05:46PM 39.6316 -77.1618 19° North  Level Estimated
05:47PM 39.6933 -77.1346 19° North  Level Estimated
05:48PM 39.7551 -77.1073 19° North  Level Estimated
05:49PM 39.8168 -77.0800 19° North  Level Estimated
05:50PM 39.8785 -77.0527 19° North  Level Estimated
05:51PM 39.9402 -77.0252 19° North  Level Estimated
05:52PM 40.0019 -76.9978 19° North  Level Estimated
05:53PM 40.0636 -76.9703 19° North  Level Estimated
05:54PM 40.1253 -76.9427 19° North  Level Estimated
05:55PM 40.1870 -76.9151 19° North  Level Estimated
05:56PM 40.2487 -76.8874 19° North  Level Estimated
05:57PM 40.3104 -76.8597 19° North  Level Estimated
05:58PM 40.3720 -76.8320 19° North  Level Estimated
05:59PM 40.4337 -76.8042 19° North  Level Estimated
06:00PM 40.4953 -76.7763 19° North  Level Estimated
06:01PM 40.5570 -76.7484 19° North  Level Estimated
06:02PM 40.6186 -76.7204 19° North  Level Estimated
06:03PM 40.6803 -76.6924 19° North  Level Estimated
06:04PM 40.7419 -76.6643 19° North  Level Estimated
06:05PM 40.8035 -76.6362 19° North  Level Estimated
06:06PM 40.8651 -76.6080 19° North  Level Estimated
06:07PM 40.9267 -76.5798 19° North  Level Estimated
06:08PM 40.9883 -76.5516 19° North  Level Estimated
06:09PM 41.0499 -76.5232 19° North  Level Estimated
06:10PM 41.1115 -76.4948 19° North  Level Estimated
06:11PM 41.1731 -76.4664 19° North  Level Estimated
06:12PM 41.2347 -76.4379 19° North  Level Estimated
06:13PM 41.2962 -76.4094 19° North  Level Estimated
06:14PM 41.3578 -76.3808 19° North  Level Estimated
06:15PM 41.4193 -76.3521 19° North  Level Estimated
06:16PM 41.4809 -76.3234 19° North  Level Estimated
06:17PM 41.5424 -76.2947 19° North  Level Estimated
06:18PM 41.6039 -76.2658 19° North  Level Estimated
06:19PM 41.6655 -76.2370 19° North  Level Estimated
06:20PM 41.7270 -76.2081 19° North  Level Estimated
06:21PM 41.7885 -76.1791 19° North  Level Estimated
06:22PM 41.8500 -76.1500 19° North  Level Estimated
06:23PM 41.9115 -76.1209 19° North  Level Estimated
06:24PM 41.9730 -76.0918 19° North  Level Estimated
06:25PM 42.0344 -76.0626 19° North  Level Estimated
06:26PM 42.0959 -76.0333 19° North  Level Estimated
06:27PM 42.1574 -76.0040 19° North  Level Estimated
06:28PM 42.2084 -75.9796 19° North  Level Estimated
06:29PM 42.2084 -75.9796 35° Northeast  Level Estimated
06:30PM 42.2084 -75.9796 35° Northeast  Level Estimated
06:31PM 42.2084 -75.9796 35° Northeast  Level Estimated
06:32PM 42.2084 -75.9796 35° Northeast  Level Estimated
06:33PM 42.2084 -75.9796 35° Northeast  Level Estimated
06:34PM 42.2084 -75.9796 35° Northeast  Level Estimated
06:35PM 42.2084 -75.9796 35° Northeast  Level Estimated
06:36PM 42.2084 -75.9796 35° Northeast  Level Estimated
06:37PM 42.2084 -75.9796 35° Northeast  Level Estimated
06:38PM 42.2084 -75.9796 35° Northeast  Level Estimated
06:39PM 42.2084 -75.9796 35° Northeast  Level Estimated
06:40PM 42.2084 -75.9796 35° Northeast  Level Estimated
06:41PM 42.2084 -75.9796 35° Northeast  Level Estimated